Time;durP1;ratioP1;P1;durP2;ratioP2;P2;SDS_P1;SDS_P2;PMS_P1;PMS_P2;Temp;Humidity;BMP_temperature;BMP_pressure;BME280_temperature;BME280_humidity;BME280_pressure;Samples;Min_cycle;Max_cycle;Signal;HPM_P1;HPM_P2
2022/11/11 00:32:41;;;;;;;;;;;;;;;5.93;100.00;99549.81;4839305;29;19928;-86
2022/11/11 03:34:30;;;;;;;;;;;;;;;5.76;100.00;99536.75;4839687;29;20520;-87
2022/11/11 03:38:45;;;;;;;;;;;;;;;5.77;100.00;99545.59;4821496;29;20115;-88
2022/11/11 03:55:47;;;;;;;;;;;;;;;5.73;100.00;99547.06;4802484;29;20042;-87
2022/11/11 04:50:43;;;;;;;;;;;;;;;5.74;100.00;99592.38;5010665;28;20018;-88
2022/11/11 04:54:01;;;;;;;;;;;;;;;5.72;100.00;99591.75;5017275;28;20322;-93
2022/11/11 04:57:31;;;;;;;;;;;;;;;5.73;100.00;99600.63;5024660;28;20411;-89
2022/11/11 05:05:08;;;;;;;;;;;;;;;5.72;100.00;99606.97;5025051;28;20419;-89
2022/11/11 05:12:18;;;;;;;;;;;;;;;;;;;;;
2022/11/11 05:26:38;;;;;;;;;;;;;;;5.72;100.00;99593.59;5052514;28;19935;-90
2022/11/11 05:29:34;;;;;;;;;;;;;;;5.73;100.00;99595.25;5052035;28;20290;-90
2022/11/11 05:32:34;;;;;;;;;;;;;;;5.75;100.00;99598.56;5056966;28;20019;-91
2022/11/11 05:35:49;;;;;;;;;;;;;;;5.76;100.00;99592.19;4958698;29;19930;-91
2022/11/11 05:39:16;;;;;;;;;;;;;;;5.75;100.00;99598.56;4951698;29;20397;-91
2022/11/11 05:42:13;;;;;;;;;;;;;;;5.74;100.00;99608.44;4938239;29;19940;-91
2022/11/11 05:45:45;;;;;;;;;;;;;;;5.73;100.00;99596.09;4934747;29;20355;-92
2022/11/11 05:53:06;;;;;;;;;;;;;;;5.70;100.00;99601.84;4878099;29;19939;-91
2022/11/11 05:57:39;;;;;;;;;;;;;;;5.74;100.00;99611.13;4805443;29;19996;-90
2022/11/11 06:01:30;;;;;;;;;;;;;;;5.76;100.00;99617.09;4772187;30;19936;-91
2022/11/11 06:23:45;;;;;;;;;;;;;;;5.80;100.00;99638.97;5097091;28;19924;-91
2022/11/11 06:27:19;;;;;;;;;;;;;;;5.80;100.00;99647.03;5029144;28;20032;-92
2022/11/11 06:44:23;;;;;;;;;;;;;;;5.91;100.00;99654.47;4766154;30;19930;-91
2022/11/11 06:51:50;;;;;;;;;;;;;;;5.94;100.00;99647.94;5086175;28;19932;-91
2022/11/11 07:00:09;;;;;;;;;;;;;;;;;;;;;
2022/11/11 07:04:34;;;;;;;;;;;;;;;6.03;100.00;99669.00;4918498;28;20097;-90
2022/11/11 07:08:48;;;;;;;;;;;;;;;;;;;;;
2022/11/11 07:24:31;;;;;;;;;;;;;;;6.02;100.00;99667.34;4874782;29;20310;-92
2022/11/11 07:28:39;;;;;;;;;;;;;;;6.02;100.00;99666.50;4842023;29;19932;-91
2022/11/11 07:36:18;;;;;;;;;;;;;;;6.01;100.00;99670.22;4872383;29;20362;-91
2022/11/11 07:39:50;;;;;;;;;;;;;;;6.00;100.00;99665.88;4850859;29;20445;-90
2022/11/11 07:43:40;;;;;;;;;;;;;;;;;;;;;
2022/11/11 07:46:59;;;;;;;;;;;;;;;6.07;100.00;99683.66;4872978;29;19932;-91
2022/11/11 07:54:17;;;;;;;;;;;;;;;6.09;100.00;99683.47;4867783;29;19934;-91
2022/11/11 08:01:52;;;;;;;;;;;;;;;6.14;100.00;99696.25;4826674;29;19928;-90
2022/11/11 08:05:33;;;;;;;;;;;;;;;6.15;100.00;99698.72;4868618;29;20435;-90
2022/11/11 08:08:43;;;;;;;;;;;;;;;6.12;100.00;99703.66;4874763;29;19931;-91
2022/11/11 08:16:28;;;;;;;;;;;;;;;6.13;100.00;99694.59;4910730;29;19983;-91
2022/11/11 08:19:34;;;;;;;;;;;;;;;6.15;100.00;99690.69;4921637;29;19966;-91
2022/11/11 08:34:19;;;;;;;;;;;;;;;6.24;100.00;99677.97;4903706;29;20414;-90
2022/11/11 08:37:53;;;;;;;;;;;;;;;;;;;;;
2022/11/11 08:40:58;;;;;;;;;;;;;;;6.28;100.00;99673.88;4902936;29;19932;-91
2022/11/11 08:44:30;;;;;;;;;;;;;;;6.29;100.00;99673.66;4883383;29;19998;-90
2022/11/11 08:47:34;;;;;;;;;;;;;;;6.33;100.00;99667.88;4923850;29;19938;-91
2022/11/11 08:50:49;;;;;;;;;;;;;;;6.34;100.00;99662.31;4920257;29;19931;-91
2022/11/11 08:54:10;;;;;;;;;;;;;;;6.42;100.00;99662.16;4896496;29;19968;-90
2022/11/11 08:57:46;;;;;;;;;;;;;;;6.40;100.00;99658.00;4899153;29;20319;-91
2022/11/11 09:01:13;;;;;;;;;;;;;;;6.38;100.00;99660.91;4905787;29;19942;-90
2022/11/11 09:04:46;;;;;;;;;;;;;;;6.42;100.00;99666.69;4938281;29;20377;-90
2022/11/11 09:11:51;;;;;;;;;;;;;;;6.47;100.00;99675.78;4963621;29;19993;-89
2022/11/11 09:27:25;;;;;;;;;;;;;;;6.59;100.00;99667.16;4940415;29;19930;-90
2022/11/11 09:34:36;;;;;;;;;;;;;;;6.59;100.00;99686.75;4989449;28;19937;-90
2022/11/11 09:37:59;;;;;;;;;;;;;;;6.62;100.00;99696.25;5027910;28;19992;-91
2022/11/11 09:54:27;;;;;;;;;;;;;;;6.64;100.00;99692.34;5012390;28;19932;-90
2022/11/11 10:02:04;;;;;;;;;;;;;;;6.75;100.00;99700.81;5016465;28;19976;-91
2022/11/11 10:06:07;;;;;;;;;;;;;;;6.75;100.00;99693.59;5007344;28;19929;-91
2022/11/11 10:09:44;;;;;;;;;;;;;;;6.73;100.00;99703.69;4974880;28;19985;-90
2022/11/11 10:13:09;;;;;;;;;;;;;;;6.71;100.00;99698.56;4962640;28;19980;-90
2022/11/11 10:16:19;;;;;;;;;;;;;;;6.74;100.00;99705.38;4973797;28;19937;-90
2022/11/11 10:24:26;;;;;;;;;;;;;;;6.75;100.00;99701.66;4949178;28;19969;-90
2022/11/11 10:28:06;;;;;;;;;;;;;;;6.74;100.00;99708.06;4936441;29;19947;-89
2022/11/11 10:39:27;;;;;;;;;;;;;;;6.75;100.00;99731.16;4939758;29;20024;-90
2022/11/11 10:42:19;;;;;;;;;;;;;;;6.78;100.00;99735.28;4967782;28;19937;-89
2022/11/11 10:45:55;;;;;;;;;;;;;;;6.82;100.00;99728.50;4972962;28;20070;-92
2022/11/11 10:53:57;;;;;;;;;;;;;;;6.80;100.00;99750.16;4951608;29;19930;-87
2022/11/11 10:57:48;;;;;;;;;;;;;;;6.80;100.00;99742.09;4937761;29;19930;-86
2022/11/11 11:00:52;;;;;;;;;;;;;;;6.80;100.00;99736.75;4951333;29;19930;-85
2022/11/11 11:03:52;;;;;;;;;;;;;;;6.80;100.00;99742.09;4951515;29;19930;-85
2022/11/11 11:06:55;;;;;;;;;;;;;;;6.81;100.00;99730.38;4937061;29;19930;-88
2022/11/11 11:10:14;;;;;;;;;;;;;;;6.80;100.00;99733.22;4865181;29;19948;-87
2022/11/11 11:13:26;;;;;;;;;;;;;;;;;;;;;
2022/11/11 11:20:29;;;;;;;;;;;;;;;6.77;100.00;99747.06;4873478;29;20022;-86
2022/11/11 11:23:36;;;;;;;;;;;;;;;6.75;100.00;99743.75;4870507;29;19931;-87
2022/11/11 11:40:41;;;;;;;;;;;;;;;6.80;100.00;99774.31;4793828;29;19937;-87
2022/11/11 11:43:49;;;;;;;;;;;;;;;6.77;100.00;99769.34;4802143;29;19933;-87
2022/11/11 11:46:45;;;;;;;;;;;;;;;6.77;100.00;99763.97;4811321;29;19932;-87
2022/11/11 11:49:46;;;;;;;;;;;;;;;6.79;100.00;99756.56;4841340;29;19932;-87
2022/11/11 11:53:10;;;;;;;;;;;;;;;6.79;100.00;99756.56;4824897;29;19972;-87
2022/11/11 11:56:22;;;;;;;;;;;;;;;6.80;100.00;99757.38;4840186;29;19933;-87
2022/11/11 12:00:01;;;;;;;;;;;;;;;6.78;100.00;99752.22;4837166;29;20044;-88
2022/11/11 12:03:35;;;;;;;;;;;;;;;6.71;100.00;99754.88;4839269;29;20492;-88
2022/11/11 12:06:37;;;;;;;;;;;;;;;6.73;100.00;99751.97;4825529;29;20351;-87
2022/11/11 12:09:35;;;;;;;;;;;;;;;6.70;100.00;99753.22;4852877;29;20363;-86
2022/11/11 12:12:42;;;;;;;;;;;;;;;6.73;100.00;99746.63;4872655;29;19932;-86
2022/11/11 12:16:01;;;;;;;;;;;;;;;6.72;100.00;99744.97;4983341;28;20025;-86
2022/11/11 12:19:08;;;;;;;;;;;;;;;6.71;100.00;99744.16;4979237;28;20028;-86
2022/11/11 12:22:42;;;;;;;;;;;;;;;6.72;100.00;99744.97;4966216;28;19973;-87
2022/11/11 12:25:37;;;;;;;;;;;;;;;6.71;100.00;99737.97;4984794;28;20007;-87
2022/11/11 12:32:22;;;;;;;;;;;;;;;6.73;100.00;99739.41;4993683;28;19930;-87
2022/11/11 12:35:32;;;;;;;;;;;;;;;6.74;100.00;99734.88;4949995;29;19930;-88
2022/11/11 12:38:31;;;;;;;;;;;;;;;6.78;100.00;99735.28;4942723;29;19931;-86
2022/11/11 12:41:37;;;;;;;;;;;;;;;6.77;100.00;99726.41;4946635;29;19930;-87
2022/11/11 12:44:25;;;;;;;;;;;;;;;6.77;100.00;99730.97;4924132;29;19941;-87
2022/11/11 12:47:20;;;;;;;;;;;;;;;6.80;100.00;99731.38;4950470;28;20395;-86
2022/11/11 12:50:08;;;;;;;;;;;;;;;6.80;100.00;99728.69;4956908;28;19985;-86
2022/11/11 12:53:10;;;;;;;;;;;;;;;6.83;100.00;99730.97;4954454;28;19930;-86
2022/11/11 12:56:48;;;;;;;;;;;;;;;6.85;100.00;99728.91;4969743;28;20388;-87
2022/11/11 13:00:20;;;;;;;;;;;;;;;6.88;100.00;99731.19;4958750;28;20324;-87
2022/11/11 13:03:43;;;;;;;;;;;;;;;6.87;100.00;99728.72;4956738;28;19930;-88
2022/11/11 13:07:10;;;;;;;;;;;;;;;6.86;100.00;99735.09;4972493;28;20335;-88
2022/11/11 13:11:13;;;;;;;;;;;;;;;6.86;100.00;99733.28;4915518;29;19995;-89
2022/11/11 13:18:19;;;;;;;;;;;;;;;6.89;100.00;99740.91;4879360;29;19936;-88
2022/11/11 13:22:27;;;;;;;;;;;;;;;6.93;100.00;99735.94;4870630;29;20002;-87
2022/11/11 13:26:19;;;;;;;;;;;;;;;6.91;100.00;99736.16;4492345;29;9999605;-87
2022/11/11 13:33:45;;;;;;;;;;;;;;;6.89;100.00;99737.41;4849696;29;20399;-88
2022/11/11 13:41:07;;;;;;;;;;;;;;;6.90;100.00;99731.81;4871904;29;20166;-86
2022/11/11 13:45:02;;;;;;;;;;;;;;;6.90;100.00;99734.50;4878995;29;19938;-87
2022/11/11 13:48:45;;;;;;;;;;;;;;;6.87;100.00;99742.97;4877906;29;19939;-85
2022/11/11 13:52:12;;;;;;;;;;;;;;;6.87;100.00;99742.97;4922546;28;19937;-87
2022/11/11 13:55:33;;;;;;;;;;;;;;;6.90;100.00;99750.59;4938291;28;19930;-86
2022/11/11 13:59:02;;;;;;;;;;;;;;;6.92;100.00;99743.19;4956079;28;19937;-87
2022/11/11 14:06:29;;;;;;;;;;;;;;;6.93;99.80;99742.13;4918834;29;20073;-87
2022/11/11 14:10:01;;;;;;;;;;;;;;;6.98;98.97;99732.66;4943887;29;19978;-86
2022/11/11 14:13:27;;;;;;;;;;;;;;;7.02;97.95;99739.28;4948088;28;19931;-84
2022/11/11 14:17:06;;;;;;;;;;;;;;;7.02;97.11;99745.47;4932763;29;19978;-86
2022/11/11 14:21:03;;;;;;;;;;;;;;;6.97;97.15;99734.53;4945682;29;20511;-86
2022/11/11 14:24:01;;;;;;;;;;;;;;;6.93;97.09;99736.75;4952284;29;20019;-86
2022/11/11 14:26:56;;;;;;;;;;;;;;;6.94;96.95;99737.63;4953028;29;20471;-87
2022/11/11 14:30:49;;;;;;;;;;;;;;;6.93;96.27;99731.41;4940819;28;20336;-87
2022/11/11 14:34:24;;;;;;;;;;;;;;;6.98;95.08;99744.22;4951735;29;19938;-86
2022/11/11 14:37:19;;;;;;;;;;;;;;;6.99;94.57;99728.94;4951552;29;19930;-87
2022/11/11 14:40:28;;;;;;;;;;;;;;;7.00;93.95;99726.06;4985312;28;19937;-87
2022/11/11 14:44:01;;;;;;;;;;;;;;;6.98;93.56;99721.94;4985131;28;19926;-87
2022/11/11 14:47:01;;;;;;;;;;;;;;;6.99;93.16;99723.56;4991847;28;19934;-87
2022/11/11 14:49:47;;;;;;;;;;;;;;;6.99;93.06;99715.50;5011599;28;19929;-86
2022/11/11 14:52:39;;;;;;;;;;;;;;;6.97;93.21;99720.28;5012478;28;19933;-86
2022/11/11 14:55:33;;;;;;;;;;;;;;;6.93;93.46;99723.34;5011157;28;20082;-87
2022/11/11 14:58:32;;;;;;;;;;;;;;;6.92;93.64;99708.28;5013630;28;20010;-87
2022/11/11 15:01:36;;;;;;;;;;;;;;;6.90;93.85;99710.34;5011755;28;19952;-86
2022/11/11 15:05:03;;;;;;;;;;;;;;;6.89;93.80;99721.31;5000411;28;20411;-87
2022/11/11 15:07:53;;;;;;;;;;;;;;;6.89;93.75;99719.44;5013571;28;19937;-87
2022/11/11 15:11:08;;;;;;;;;;;;;;;6.91;93.69;99725.44;5013100;28;19974;-87
2022/11/11 15:14:08;;;;;;;;;;;;;;;6.91;93.37;99711.16;5014501;28;20028;-87
2022/11/11 15:17:51;;;;;;;;;;;;;;;6.89;93.28;99706.03;5010189;28;20289;-87
2022/11/11 15:20:52;;;;;;;;;;;;;;;6.87;93.23;99707.25;5015139;28;19930;-87
2022/11/11 15:24:12;;;;;;;;;;;;;;;6.86;93.15;99705.59;5015758;28;20310;-87
2022/11/11 15:27:11;;;;;;;;;;;;;;;6.85;92.89;99710.13;5004174;28;19944;-87
2022/11/11 15:30:15;;;;;;;;;;;;;;;6.90;91.75;99698.78;5014858;28;20091;-86
2022/11/11 15:34:01;;;;;;;;;;;;;;;6.88;91.49;99701.66;5015432;28;19944;-87
2022/11/11 15:36:58;;;;;;;;;;;;;;;6.88;91.77;99708.91;5004847;28;19930;-85
2022/11/11 15:39:45;;;;;;;;;;;;;;;6.84;92.18;99705.81;5013887;28;20315;-85
2022/11/11 15:42:38;;;;;;;;;;;;;;;6.82;92.79;99699.81;5000630;28;20015;-87
2022/11/11 15:45:32;;;;;;;;;;;;;;;6.83;92.47;99696.09;5013374;28;20061;-86
2022/11/11 15:48:21;;;;;;;;;;;;;;;6.81;92.71;99695.47;5010593;28;19929;-86
2022/11/11 15:51:37;;;;;;;;;;;;;;;6.79;92.99;99686.81;4993958;28;19930;-84
2022/11/11 15:54:50;;;;;;;;;;;;;;;6.78;92.75;99684.31;4997409;28;20500;-85
2022/11/11 15:57:33;;;;;;;;;;;;;;;6.77;92.48;99680.00;5009728;28;19930;-83
2022/11/11 16:00:22;;;;;;;;;;;;;;;6.77;92.03;99683.50;5007444;28;19988;-85
2022/11/11 16:07:37;;;;;;;;;;;;;;;6.73;91.44;99701.88;5001192;28;19937;-86
2022/11/11 16:10:59;;;;;;;;;;;;;;;6.68;91.75;99696.28;4914771;29;19970;-86
2022/11/11 16:26:48;;;;;;;;;;;;;;;6.72;92.26;99694.81;4787229;30;19977;-86
2022/11/11 16:34:56;;;;;;;;;;;;;;;6.75;91.59;99696.28;4769543;30;20002;-87
2022/11/11 16:37:56;;;;;;;;;;;;;;;6.75;91.66;99692.78;4686468;30;20426;-88
2022/11/11 16:40:46;;;;;;;;;;;;;;;6.73;91.54;99703.69;4688396;30;19934;-87
2022/11/11 16:43:37;;;;;;;;;;;;;;;6.74;91.67;99708.06;4698844;30;19970;-88
2022/11/11 16:46:31;;;;;;;;;;;;;;;6.74;91.80;99694.63;4701316;30;19931;-88
2022/11/11 16:49:19;;;;;;;;;;;;;;;6.66;91.88;99692.97;4752957;30;20008;-88
2022/11/11 16:52:57;;;;;;;;;;;;;;;6.51;92.51;99682.41;4748151;30;19995;-85
2022/11/11 16:55:37;;;;;;;;;;;;;;;6.44;93.29;99678.88;4764353;30;19929;-86
2022/11/11 16:58:38;;;;;;;;;;;;;;;6.42;93.58;99680.09;4781663;29;20752;-84
2022/11/11 17:01:41;;;;;;;;;;;;;;;6.42;94.12;99669.38;4797670;29;19962;-83
2022/11/11 17:05:01;;;;;;;;;;;;;;;6.46;94.03;99663.41;4786406;29;19965;-85
2022/11/11 17:08:01;;;;;;;;;;;;;;;6.53;93.84;99654.53;4808416;29;19933;-86
2022/11/11 17:11:25;;;;;;;;;;;;;;;6.51;94.32;99641.34;4887620;28;19985;-84
2022/11/11 17:14:24;;;;;;;;;;;;;;;6.52;94.45;99634.94;4983721;28;19930;-85
2022/11/11 17:17:19;;;;;;;;;;;;;;;6.49;94.84;99633.50;4987482;28;19971;-85
2022/11/11 17:20:19;;;;;;;;;;;;;;;6.49;95.09;99628.13;5008081;28;19956;-86
2022/11/11 17:23:51;;;;;;;;;;;;;;;6.45;95.36;99621.50;4970418;28;19949;-86
2022/11/11 17:27:37;;;;;;;;;;;;;;;6.45;95.90;99616.16;5002881;28;19929;-86
2022/11/11 17:30:38;;;;;;;;;;;;;;;6.48;95.94;99618.44;4988759;28;19930;-86
2022/11/11 17:33:33;;;;;;;;;;;;;;;6.50;95.95;99621.72;4994729;28;19930;-86
2022/11/11 17:41:10;;;;;;;;;;;;;;;6.44;96.76;99603.78;4930205;28;20334;-87
2022/11/11 17:44:07;;;;;;;;;;;;;;;6.46;97.13;99601.72;4930090;29;19935;-88
2022/11/11 17:47:03;;;;;;;;;;;;;;;6.47;97.20;99605.22;4913716;29;20033;-85
2022/11/11 17:50:28;;;;;;;;;;;;;;;6.46;97.43;99623.19;4859014;29;19936;-87
2022/11/11 17:53:19;;;;;;;;;;;;;;;6.46;97.54;99614.31;4857063;29;19932;-85
2022/11/11 17:56:45;;;;;;;;;;;;;;;;;;;;;
2022/11/11 18:00:21;;;;;;;;;;;;;;;6.48;97.95;99596.16;4813529;29;19940;-85
2022/11/11 18:03:08;;;;;;;;;;;;;;;6.51;97.76;99599.25;4803974;29;20397;-86
2022/11/11 18:06:19;;;;;;;;;;;;;;;6.50;97.83;99602.13;4803084;29;19956;-85
2022/11/11 18:09:11;;;;;;;;;;;;;;;6.52;97.70;99600.09;4801588;29;20010;-85
2022/11/11 18:12:24;;;;;;;;;;;;;;;6.52;97.91;99608.13;4802704;29;19989;-89
2022/11/11 18:15:27;;;;;;;;;;;;;;;6.51;97.98;99588.53;4812973;29;20075;-85
2022/11/11 18:18:38;;;;;;;;;;;;;;;6.57;97.79;99600.31;4840514;29;19932;-85
2022/11/11 18:21:44;;;;;;;;;;;;;;;6.58;97.83;99593.06;4809399;29;19933;-85
2022/11/11 18:24:48;;;;;;;;;;;;;;;6.57;97.73;99591.44;4802942;29;19937;-84
2022/11/11 18:28:15;;;;;;;;;;;;;;;6.58;97.69;99606.47;4801688;29;19964;-84
2022/11/11 18:31:47;;;;;;;;;;;;;;;6.56;97.91;99579.03;4819976;29;19962;-85
2022/11/11 18:41:28;;;;;;;;;;;;;;;6.59;97.83;99576.78;4875972;29;19984;-85
2022/11/11 18:44:16;;;;;;;;;;;;;;;6.59;97.72;99584.03;4874604;29;19938;-84
2022/11/11 18:47:31;;;;;;;;;;;;;;;6.56;97.93;99565.63;4863046;29;19931;-85
2022/11/11 18:50:41;;;;;;;;;;;;;;;6.58;97.89;99577.81;4894985;29;19931;-84
2022/11/11 18:53:32;;;;;;;;;;;;;;;6.55;98.01;99564.00;4892462;29;19937;-86
2022/11/11 18:56:42;;;;;;;;;;;;;;;6.59;97.89;99563.38;4874374;29;19932;-87
2022/11/11 19:00:23;;;;;;;;;;;;;;;6.60;97.79;99561.53;4993602;28;19929;-85
2022/11/11 19:11:56;;;;;;;;;;;;;;;6.63;97.67;99547.69;4994977;28;19926;-87
2022/11/11 19:15:38;;;;;;;;;;;;;;;6.63;97.61;99539.66;4927831;29;20043;-89
2022/11/11 19:18:31;;;;;;;;;;;;;;;6.66;97.43;99534.72;4932127;29;19935;-89
2022/11/11 19:22:02;;;;;;;;;;;;;;;6.70;97.54;99527.06;4945263;29;20049;-90
2022/11/11 19:25:10;;;;;;;;;;;;;;;6.73;97.22;99532.00;4932705;29;20063;-90
2022/11/11 19:32:02;;;;;;;;;;;;;;;6.73;97.32;99514.09;4961621;29;19946;-90
2022/11/11 19:39:25;;;;;;;;;;;;;;;6.76;97.23;99502.13;4934453;29;19966;-91
2022/11/11 19:50:17;;;;;;;;;;;;;;;6.79;97.24;99484.78;5175160;23;20381;-90
2022/11/11 19:57:53;;;;;;;;;;;;;;;6.86;97.12;99493.63;5025694;28;19925;-89
2022/11/11 20:01:36;;;;;;;;;;;;;;;;;;;;;
2022/11/11 20:05:17;;;;;;;;;;;;;;;6.94;96.08;99464.72;4972242;28;19938;-88
2022/11/11 20:25:19;;;;;;;;;;;;;;;6.86;96.16;99427.41;4853230;29;19948;-92
2022/11/11 20:28:57;;;;;;;;;;;;;;;6.89;96.09;99424.28;4838985;29;19992;-92
2022/11/11 20:32:45;;;;;;;;;;;;;;;6.92;95.81;99423.84;4834973;29;19917;-91
2022/11/11 20:36:54;;;;;;;;;;;;;;;6.94;95.90;99429.03;4832719;29;19933;-93
2022/11/11 20:56:40;;;;;;;;;;;;;;;6.58;98.49;99395.44;4861733;29;19940;-89
2022/11/11 20:59:34;;;;;;;;;;;;;;;6.52;99.48;99407.00;4859169;29;19932;-87
2022/11/11 21:02:21;;;;;;;;;;;;;;;6.46;100.00;99403.31;4851274;29;19936;-87
2022/11/11 21:05:19;;;;;;;;;;;;;;;6.44;100.00;99394.66;4856979;29;20019;-87
2022/11/11 21:09:11;;;;;;;;;;;;;;;6.42;100.00;99393.22;4839983;29;19939;-87
2022/11/11 21:24:17;;;;;;;;;;;;;;;6.28;100.00;99365.59;4756920;30;19934;-86
2022/11/11 21:28:06;;;;;;;;;;;;;;;6.28;100.00;99368.28;4751729;30;20412;-88
2022/11/11 21:31:21;;;;;;;;;;;;;;;6.25;100.00;99366.84;4767442;30;19992;-90
2022/11/11 21:34:25;;;;;;;;;;;;;;;6.22;100.00;99361.06;4749063;30;20444;-87
2022/11/11 21:37:28;;;;;;;;;;;;;;;6.20;100.00;99355.06;4734668;30;20366;-88
2022/11/11 21:44:46;;;;;;;;;;;;;;;;;;;;;
2022/11/11 21:48:21;;;;;;;;;;;;;;;6.22;100.00;99328.91;4683194;30;20420;-88
2022/11/11 21:51:28;;;;;;;;;;;;;;;6.23;100.00;99309.94;4741164;30;20397;-89
2022/11/11 22:02:06;;;;;;;;;;;;;;;6.29;100.00;99308.28;4822485;29;19982;-89
2022/11/11 22:05:20;;;;;;;;;;;;;;;6.37;100.00;99318.75;4821134;29;20085;-87
2022/11/11 22:08:37;;;;;;;;;;;;;;;6.39;100.00;99297.94;4817230;29;19928;-88
2022/11/11 22:11:54;;;;;;;;;;;;;;;6.41;100.00;99309.28;4897685;29;20453;-88
2022/11/11 22:18:57;;;;;;;;;;;;;;;6.49;100.00;99305.53;4874892;29;19938;-88
2022/11/11 22:33:16;;;;;;;;;;;;;;;6.51;100.00;99282.03;4857032;29;19928;-88
2022/11/11 22:36:27;;;;;;;;;;;;;;;6.55;100.00;99264.47;4802519;29;19940;-88
2022/11/11 22:39:28;;;;;;;;;;;;;;;6.54;100.00;99284.28;4791661;29;20032;-88
2022/11/11 22:42:48;;;;;;;;;;;;;;;6.63;100.00;99279.50;4784234;30;19976;-88
2022/11/11 22:45:35;;;;;;;;;;;;;;;6.68;100.00;99291.25;4784258;30;19933;-88
2022/11/11 22:57:01;;;;;;;;;;;;;;;6.66;100.00;99287.09;4717576;30;19934;-88
2022/11/11 23:12:23;;;;;;;;;;;;;;;6.72;100.00;99283.59;4531620;27;15999213;-89
2022/11/11 23:16:15;;;;;;;;;;;;;;;6.73;100.00;99291.44;4952733;28;19981;-88
2022/11/11 23:35:45;;;;;;;;;;;;;;;6.63;100.00;99300.94;4929655;29;19938;-89
2022/11/11 23:38:45;;;;;;;;;;;;;;;6.47;100.00;99294.19;4914243;29;19938;-89
2022/11/11 23:42:56;;;;;;;;;;;;;;;6.46;100.00;99311.34;4929382;29;19942;-89
2022/11/11 23:46:00;;;;;;;;;;;;;;;6.44;100.00;99297.31;4854994;29;19972;-88
2022/11/11 23:48:48;;;;;;;;;;;;;;;6.42;100.00;99305.56;4841353;29;19928;-89
2022/11/11 23:51:39;;;;;;;;;;;;;;;6.38;100.00;99301.66;4826433;29;19939;-88
2022/11/11 23:54:32;;;;;;;;;;;;;;;6.41;100.00;99295.06;4825506;29;19928;-88
2022/11/11 23:57:52;;;;;;;;;;;;;;;6.38;100.00;99298.97;4928907;29;20029;-88
